Time;durP1;ratioP1;P1;durP2;ratioP2;P2;SDS_P1;SDS_P2;PMS_P1;PMS_P2;Temp;Humidity;BMP_temperature;BMP_pressure;BME280_temperature;BME280_humidity;BME280_pressure;Samples;Min_cycle;Max_cycle;Signal;HPM_P1;HPM_P2
2022/09/13 00:00:17;;;;;;;7.20;6.40;;;16.00;99.90;;;;;;5072307;28;20043;-43
2022/09/13 00:02:43;;;;;;;6.65;5.90;;;15.90;99.90;;;;;;5072431;28;20426;-44
2022/09/13 00:05:08;;;;;;;7.45;6.38;;;16.00;99.90;;;;;;5072788;28;20068;-47
2022/09/13 00:07:34;;;;;;;14.15;7.30;;;16.00;99.90;;;;;;5072325;28;20054;-46
2022/09/13 00:10:00;;;;;;;7.70;6.65;;;15.90;99.90;;;;;;5072010;28;20021;-46
2022/09/13 00:12:25;;;;;;;7.82;6.88;;;15.90;99.90;;;;;;5071868;28;20392;-45
2022/09/13 00:14:51;;;;;;;8.35;6.90;;;15.90;99.90;;;;;;5072132;28;20024;-46
2022/09/13 00:17:16;;;;;;;7.45;6.63;;;15.90;99.90;;;;;;5071622;28;20098;-44
2022/09/13 00:19:42;;;;;;;9.80;5.85;;;15.90;99.90;;;;;;5071915;28;20032;-44
2022/09/13 00:22:07;;;;;;;10.30;6.80;;;15.90;99.90;;;;;;5071660;28;20040;-43
2022/09/13 00:24:33;;;;;;;12.30;6.35;;;15.90;99.90;;;;;;5072038;28;20081;-43
2022/09/13 00:26:59;;;;;;;10.18;6.90;;;15.90;99.90;;;;;;5071775;28;20025;-45
2022/09/13 00:29:26;;;;;;;9.80;7.05;;;15.90;99.90;;;;;;5072051;28;20439;-43
2022/09/13 00:31:52;;;;;;;9.85;7.70;;;15.80;99.90;;;;;;5053627;28;20025;-47
2022/09/13 00:34:18;;;;;;;11.20;7.25;;;15.90;99.90;;;;;;5071770;28;20032;-43
2022/09/13 00:36:43;;;;;;;7.88;6.97;;;15.90;99.90;;;;;;5071741;28;20017;-44
2022/09/13 00:39:10;;;;;;;9.85;7.20;;;15.90;99.90;;;;;;5071716;28;20032;-45
2022/09/13 00:41:36;;;;;;;14.80;8.15;;;15.90;99.90;;;;;;5071493;28;20029;-44
2022/09/13 00:44:03;;;;;;;9.55;6.80;;;15.90;99.90;;;;;;5071491;28;20023;-43
2022/09/13 00:46:32;;;;;;;12.02;7.32;;;15.90;99.90;;;;;;5071819;28;20078;-45
2022/09/13 00:49:12;;;;;;;8.70;7.55;;;15.90;99.90;;;;;;5071479;28;20404;-43
2022/09/13 00:51:40;;;;;;;8.63;6.85;;;15.80;99.90;;;;;;5071478;28;20032;-44
2022/09/13 00:54:06;;;;;;;9.25;7.13;;;15.80;99.90;;;;;;5071617;28;20396;-44
2022/09/13 00:56:39;;;;;;;11.38;6.88;;;15.80;99.90;;;;;;5071566;28;20027;-44
2022/09/13 00:59:23;;;;;;;6.90;5.95;;;15.80;99.90;;;;;;5071227;28;20272;-45
2022/09/13 01:01:53;;;;;;;8.88;6.25;;;15.80;99.90;;;;;;5071181;28;20142;-44
2022/09/13 01:04:21;;;;;;;11.07;6.63;;;15.80;99.90;;;;;;5071534;28;20111;-44
2022/09/13 01:06:50;;;;;;;7.03;6.30;;;15.80;99.90;;;;;;5071428;28;20032;-44
2022/09/13 01:09:16;;;;;;;8.52;6.75;;;15.70;99.90;;;;;;5071344;28;20165;-47
2022/09/13 01:11:59;;;;;;;7.53;6.43;;;15.70;99.90;;;;;;5071262;28;20025;-44
2022/09/13 01:14:26;;;;;;;10.25;6.40;;;15.70;99.90;;;;;;5071416;28;20027;-44
2022/09/13 01:16:51;;;;;;;7.20;6.47;;;15.60;99.90;;;;;;5071380;28;20373;-44
2022/09/13 01:19:17;;;;;;;10.02;5.93;;;15.60;99.90;;;;;;5071336;28;20032;-44
2022/09/13 01:21:57;;;;;;;12.27;5.53;;;15.50;99.90;;;;;;5071177;28;20504;-44
2022/09/13 01:24:40;;;;;;;8.20;6.13;;;15.40;99.90;;;;;;5071345;28;20020;-45
2022/09/13 01:27:15;;;;;;;6.65;6.05;;;15.40;99.90;;;;;;5053363;28;20021;-43
2022/09/13 01:30:09;;;;;;;7.43;6.28;;;15.30;99.90;;;;;;5076124;28;20017;-44
2022/09/13 01:32:40;;;;;;;7.32;6.18;;;15.30;99.90;;;;;;5075724;28;20032;-44
2022/09/13 01:35:22;;;;;;;13.57;6.28;;;15.30;99.90;;;;;;5075287;28;20013;-45
2022/09/13 01:37:54;;;;;;;9.73;6.95;;;15.20;99.90;;;;;;5075158;28;20154;-43
2022/09/13 01:40:49;;;;;;;7.50;6.78;;;15.20;99.90;;;;;;5075098;28;20029;-44
2022/09/13 01:44:02;;;;;;;10.63;6.67;;;15.20;99.90;;;;;;5074983;28;20044;-45
2022/09/13 01:46:42;;;;;;;7.93;7.05;;;15.20;99.90;;;;;;5069202;28;20267;-44
2022/09/13 01:49:17;;;;;;;7.80;5.95;;;15.10;99.90;;;;;;5076611;28;20032;-45
2022/09/13 01:51:53;;;;;;;;;;;15.10;99.90;;;;;;5075326;28;20020;-44
2022/09/13 01:54:45;;;;;;;7.95;7.03;;;15.10;99.90;;;;;;5074796;28;19904;-46
2022/09/13 01:57:22;;;;;;;10.02;6.63;;;15.10;99.90;;;;;;5075029;28;20039;-46
2022/09/13 01:59:52;;;;;;;7.68;6.43;;;15.10;99.90;;;;;;5074100;28;20026;-44
2022/09/13 02:02:27;;;;;;;10.52;6.57;;;15.00;99.90;;;;;;5074286;28;20025;-44
2022/09/13 02:04:58;;;;;;;6.82;5.80;;;15.00;99.90;;;;;;5074829;28;20468;-45
2022/09/13 02:07:31;;;;;;;12.50;7.07;;;15.00;99.90;;;;;;5056523;28;20553;-46
2022/09/13 02:10:03;;;;;;;12.63;7.18;;;14.90;99.90;;;;;;5074465;28;20028;-43
2022/09/13 02:12:33;;;;;;;10.40;7.45;;;14.90;99.90;;;;;;5056420;28;20028;-44
2022/09/13 02:15:08;;;;;;;15.48;8.35;;;14.90;99.90;;;;;;5056578;28;20087;-49
2022/09/13 02:17:39;;;;;;;9.65;7.78;;;14.80;99.90;;;;;;5074455;28;20028;-45
2022/09/13 02:20:28;;;;;;;9.40;7.88;;;14.90;99.90;;;;;;5074227;28;20123;-44
2022/09/13 02:22:57;;;;;;;8.82;7.63;;;14.90;99.90;;;;;;5073556;28;20064;-47
2022/09/13 02:25:25;;;;;;;12.15;7.90;;;14.80;99.90;;;;;;5074379;28;20020;-43
2022/09/13 02:28:00;;;;;;;14.50;7.45;;;14.80;99.90;;;;;;5074182;28;20028;-45
2022/09/13 02:30:28;;;;;;;10.85;7.00;;;14.70;99.90;;;;;;5074316;28;20078;-44
2022/09/13 02:33:00;;;;;;;9.50;7.68;;;14.70;99.90;;;;;;5073803;28;20059;-44
2022/09/13 02:35:33;;;;;;;9.73;7.38;;;14.70;99.90;;;;;;5074267;28;20017;-44
2022/09/13 02:38:16;;;;;;;9.02;7.95;;;14.70;99.90;;;;;;5074072;28;20116;-44
2022/09/13 02:40:48;;;;;;;10.18;7.90;;;14.70;99.90;;;;;;5074163;28;20028;-44
2022/09/13 02:43:25;;;;;;;10.77;7.53;;;14.70;99.90;;;;;;5073608;28;20438;-44
2022/09/13 02:46:05;;;;;;;10.57;7.60;;;14.70;99.90;;;;;;5074093;28;20034;-46
2022/09/13 02:48:48;;;;;;;9.30;7.22;;;14.70;99.90;;;;;;5073660;28;20373;-49
2022/09/13 02:51:41;;;;;;;12.52;7.38;;;14.70;99.90;;;;;;5073838;28;20373;-44
2022/09/13 02:54:23;;;;;;;8.30;6.50;;;14.80;99.90;;;;;;5032239;28;20037;-47
2022/09/13 02:57:05;;;;;;;11.43;7.70;;;14.80;99.90;;;;;;5055777;28;20074;-43
2022/09/13 02:59:30;;;;;;;12.60;7.65;;;14.70;99.90;;;;;;5073030;28;20020;-41
2022/09/13 03:02:18;;;;;;;10.70;7.35;;;14.70;99.90;;;;;;5073232;28;20081;-41
2022/09/13 03:04:44;;;;;;;11.18;8.20;;;14.70;99.90;;;;;;5073653;28;20111;-44
2022/09/13 03:07:13;;;;;;;8.98;7.38;;;14.70;99.90;;;;;;5073501;28;20491;-45
2022/09/13 03:09:46;;;;;;;8.23;7.28;;;14.70;99.90;;;;;;5073387;28;20479;-46
2022/09/13 03:12:28;;;;;;;10.75;7.18;;;14.70;99.90;;;;;;5073003;28;20125;-43
2022/09/13 03:15:19;;;;;;;12.68;8.73;;;14.80;99.90;;;;;;5073451;28;20025;-43
2022/09/13 03:17:51;;;;;;;12.38;7.22;;;14.80;99.90;;;;;;5055324;28;20074;-44
2022/09/13 03:20:50;;;;;;;8.70;7.32;;;14.80;99.90;;;;;;5073060;28;20036;-44
2022/09/13 03:23:42;;;;;;;13.00;8.23;;;14.80;99.90;;;;;;5072821;28;20430;-43
2022/09/13 03:26:11;;;;;;;11.45;8.32;;;14.80;99.90;;;;;;5073179;28;20024;-46
2022/09/13 03:28:58;;;;;;;9.05;8.15;;;14.70;99.90;;;;;;5072877;28;20115;-44
2022/09/13 03:31:51;;;;;;;13.13;8.52;;;14.70;99.90;;;;;;5072913;28;20507;-44
2022/09/13 03:34:29;;;;;;;9.27;7.75;;;14.70;99.90;;;;;;5062972;28;20044;-43
2022/09/13 03:37:07;;;;;;;8.25;7.15;;;14.70;99.90;;;;;;5073032;28;20020;-43
2022/09/13 03:39:40;;;;;;;10.27;8.05;;;14.80;99.90;;;;;;5072794;28;20487;-44
2022/09/13 03:42:17;;;;;;;8.57;7.05;;;14.70;99.90;;;;;;5072533;28;20033;-44
2022/09/13 03:44:45;;;;;;;9.07;7.38;;;14.80;99.90;;;;;;5072626;28;20032;-45
2022/09/13 03:47:12;;;;;;;11.10;7.97;;;14.80;99.90;;;;;;5072840;28;20206;-46
2022/09/13 03:49:39;;;;;;;16.35;7.80;;;14.80;99.90;;;;;;5072583;28;20024;-44
2022/09/13 03:52:06;;;;;;;8.50;7.30;;;14.80;99.90;;;;;;5071600;28;20021;-45
2022/09/13 03:54:35;;;;;;;8.30;6.85;;;14.90;99.90;;;;;;5072522;28;20028;-43
2022/09/13 03:57:15;;;;;;;8.90;7.50;;;14.80;99.90;;;;;;5054584;28;20056;-44
2022/09/13 03:59:46;;;;;;;10.93;8.18;;;14.80;99.90;;;;;;5072103;28;20025;-44
2022/09/13 04:02:12;;;;;;;13.25;8.63;;;14.90;99.90;;;;;;5072243;28;20025;-43
2022/09/13 04:04:40;;;;;;;13.00;9.88;;;14.90;99.90;;;;;;5072129;28;20048;-44
2022/09/13 04:07:05;;;;;;;11.02;8.25;;;14.90;99.90;;;;;;5072455;28;20432;-43
2022/09/13 04:09:31;;;;;;;11.38;8.82;;;14.80;99.90;;;;;;5072054;28;20059;-45
2022/09/13 04:11:57;;;;;;;10.35;9.20;;;14.80;99.90;;;;;;5071904;28;20026;-43
2022/09/13 04:14:25;;;;;;;17.15;9.38;;;14.80;99.90;;;;;;5072031;28;20047;-47
2022/09/13 04:16:53;;;;;;;11.32;8.48;;;14.80;99.90;;;;;;5072176;28;20098;-46
2022/09/13 04:19:19;;;;;;;10.85;9.02;;;14.80;99.90;;;;;;5072029;28;20028;-44
2022/09/13 04:21:47;;;;;;;9.85;8.23;;;14.70;99.90;;;;;;5093600;22;20044;-43
2022/09/13 04:24:14;;;;;;;9.45;8.27;;;14.70;99.90;;;;;;5071598;28;20016;-44
2022/09/13 04:26:39;;;;;;;9.65;8.30;;;14.70;99.90;;;;;;5071869;28;20023;-44
2022/09/13 04:29:05;;;;;;;11.52;7.85;;;14.70;99.90;;;;;;5071877;28;20037;-46
2022/09/13 04:31:30;;;;;;;11.52;8.48;;;14.70;99.90;;;;;;5072269;28;20491;-47
2022/09/13 04:33:56;;;;;;;11.15;7.30;;;14.70;99.90;;;;;;5072842;28;20020;-44
2022/09/13 04:36:22;;;;;;;12.88;9.07;;;14.70;99.90;;;;;;5073436;28;20017;-43
2022/09/13 04:38:47;;;;;;;11.98;8.13;;;14.70;99.90;;;;;;5073537;28;20028;-42
2022/09/13 04:41:14;;;;;;;13.23;8.30;;;14.70;99.90;;;;;;5073505;28;20055;-44
2022/09/13 04:43:40;;;;;;;7.55;6.85;;;14.70;99.90;;;;;;5072036;28;20021;-47
2022/09/13 04:46:05;;;;;;;11.00;6.72;;;14.70;99.90;;;;;;5073205;28;20028;-43
2022/09/13 04:48:31;;;;;;;7.50;6.80;;;14.70;99.90;;;;;;5072085;28;20415;-47
2022/09/13 04:51:01;;;;;;;9.48;7.18;;;14.70;99.90;;;;;;5056059;28;20063;-42
2022/09/13 04:53:27;;;;;;;16.17;8.95;;;14.80;99.90;;;;;;5073500;28;20528;-46
2022/09/13 04:55:58;;;;;;;8.55;7.65;;;14.80;99.90;;;;;;5073064;28;20112;-40
2022/09/13 04:58:24;;;;;;;11.18;7.40;;;14.80;99.90;;;;;;5072385;28;20056;-44
2022/09/13 05:00:55;;;;;;;12.00;8.32;;;14.90;99.90;;;;;;5073364;28;20024;-47
2022/09/13 05:03:21;;;;;;;8.40;7.60;;;14.90;99.90;;;;;;5072044;28;20044;-45
2022/09/13 05:05:46;;;;;;;10.27;8.00;;;14.90;99.90;;;;;;5071924;28;20060;-43
2022/09/13 05:08:12;;;;;;;10.05;7.82;;;14.90;99.90;;;;;;5071628;28;20025;-42
2022/09/13 05:10:37;;;;;;;10.88;7.97;;;14.90;99.90;;;;;;5071792;28;20036;-44
2022/09/13 05:13:03;;;;;;;13.43;8.50;;;14.90;99.90;;;;;;5072882;28;20100;-45
2022/09/13 05:15:28;;;;;;;11.30;7.40;;;14.90;99.90;;;;;;5072897;28;20029;-40
2022/09/13 05:17:54;;;;;;;8.15;7.03;;;14.90;99.90;;;;;;5072261;28;20107;-42
2022/09/13 05:20:20;;;;;;;11.57;8.00;;;14.90;99.90;;;;;;5054926;28;20091;-44
2022/09/13 05:22:45;;;;;;;13.95;10.85;;;14.90;99.90;;;;;;5054976;28;20024;-42
2022/09/13 05:25:11;;;;;;;14.63;11.07;;;15.00;99.90;;;;;;5073042;28;20025;-45
2022/09/13 05:27:36;;;;;;;12.38;8.55;;;15.00;99.90;;;;;;5071750;28;20039;-44
2022/09/13 05:30:03;;;;;;;17.50;9.55;;;15.00;99.90;;;;;;5072936;28;20040;-41
2022/09/13 05:32:30;;;;;;;14.48;9.30;;;15.00;99.90;;;;;;5072593;28;20040;-44
2022/09/13 05:34:56;;;;;;;12.75;9.70;;;15.00;99.90;;;;;;5071219;28;20024;-43
2022/09/13 05:37:21;;;;;;;12.00;9.10;;;15.00;99.90;;;;;;5071165;28;20039;-47
2022/09/13 05:39:47;;;;;;;16.98;10.95;;;15.00;99.90;;;;;;5071229;28;20407;-44
2022/09/13 05:42:12;;;;;;;16.02;10.48;;;15.10;99.90;;;;;;5071279;28;20526;-46
2022/09/13 05:44:38;;;;;;;16.02;10.38;;;15.10;99.90;;;;;;5071024;28;20043;-43
2022/09/13 05:47:04;;;;;;;16.30;11.55;;;15.20;99.90;;;;;;5053150;28;20028;-42
2022/09/13 05:49:30;;;;;;;12.40;11.10;;;15.20;99.90;;;;;;5070950;28;20133;-47
2022/09/13 05:51:55;;;;;;;12.55;10.63;;;15.20;99.90;;;;;;5070726;28;20021;-42
2022/09/13 05:54:21;;;;;;;12.45;9.45;;;15.20;99.90;;;;;;5071312;28;20024;-46
2022/09/13 05:56:46;;;;;;;17.15;9.60;;;15.20;99.90;;;;;;5070994;28;20021;-46
2022/09/13 05:59:13;;;;;;;12.05;10.73;;;15.20;99.90;;;;;;5070641;28;20094;-46
2022/09/13 06:01:39;;;;;;;11.65;9.88;;;15.20;99.90;;;;;;5070951;28;20020;-45
2022/09/13 06:04:05;;;;;;;11.32;9.43;;;15.30;99.90;;;;;;5071069;28;20650;-47
2022/09/13 06:06:30;;;;;;;13.40;9.23;;;15.30;99.90;;;;;;5070978;28;20424;-47
2022/09/13 06:08:57;;;;;;;11.52;8.73;;;15.30;99.90;;;;;;5052811;28;20075;-46
2022/09/13 06:11:24;;;;;;;12.15;9.68;;;15.30;99.90;;;;;;5070887;28;20028;-50
2022/09/13 06:13:50;;;;;;;12.52;9.82;;;15.40;99.90;;;;;;5071305;28;20012;-49
2022/09/13 06:16:16;;;;;;;14.00;9.25;;;15.40;99.90;;;;;;5056480;28;20040;-45
2022/09/13 06:18:42;;;;;;;10.48;9.35;;;15.40;99.90;;;;;;5074350;28;20051;-50
2022/09/13 06:21:12;;;;;;;14.68;10.15;;;15.50;99.90;;;;;;5074306;28;20036;-47
2022/09/13 06:23:38;;;;;;;12.98;9.70;;;15.50;99.90;;;;;;5074191;28;20532;-46
2022/09/13 06:26:09;;;;;;;11.40;10.13;;;15.50;99.90;;;;;;5074395;28;20104;-45
2022/09/13 06:28:35;;;;;;;13.38;9.70;;;15.60;99.90;;;;;;5074275;28;20036;-43
2022/09/13 06:31:02;;;;;;;15.98;9.98;;;15.60;99.90;;;;;;5056152;28;20028;-48
2022/09/13 06:33:28;;;;;;;13.80;10.35;;;15.60;99.90;;;;;;5073834;28;20504;-44
2022/09/13 06:35:53;;;;;;;17.67;10.90;;;15.60;99.90;;;;;;5056243;28;20024;-44
2022/09/13 06:38:19;;;;;;;13.13;9.05;;;15.70;99.90;;;;;;5074287;28;20044;-45
2022/09/13 06:40:44;;;;;;;14.02;8.60;;;15.70;99.90;;;;;;5055939;28;20024;-48
2022/09/13 06:43:10;;;;;;;14.20;10.98;;;15.60;99.90;;;;;;5073829;28;20116;-45
2022/09/13 06:45:36;;;;;;;9.75;8.75;;;15.60;99.90;;;;;;5056549;28;20036;-45
2022/09/13 06:48:02;;;;;;;14.50;9.07;;;15.60;99.90;;;;;;5074275;28;20020;-44
2022/09/13 06:50:27;;;;;;;14.13;9.88;;;15.70;99.90;;;;;;5074585;28;20025;-44
2022/09/13 06:52:54;;;;;;;9.85;8.85;;;15.70;99.90;;;;;;5074944;28;20047;-46
2022/09/13 06:55:20;;;;;;;10.93;8.15;;;15.80;99.90;;;;;;5074005;28;20032;-45
2022/09/13 06:57:46;;;;;;;10.52;8.60;;;15.80;99.90;;;;;;5073919;28;20062;-44
2022/09/13 07:00:12;;;;;;;13.07;8.48;;;15.80;99.90;;;;;;5073587;28;20037;-47
2022/09/13 07:02:38;;;;;;;12.57;9.73;;;15.90;99.90;;;;;;5073566;28;20158;-48
2022/09/13 07:05:04;;;;;;;13.48;9.20;;;15.90;99.90;;;;;;5073687;28;20103;-46
2022/09/13 07:07:30;;;;;;;12.27;10.00;;;16.00;99.90;;;;;;5073675;28;20024;-41
2022/09/13 07:09:55;;;;;;;10.48;8.73;;;16.00;99.90;;;;;;5073756;28;20016;-43
2022/09/13 07:12:21;;;;;;;17.83;9.43;;;16.10;99.90;;;;;;5073332;28;20055;-45
2022/09/13 07:14:46;;;;;;;15.52;9.10;;;16.20;99.90;;;;;;5073921;28;20396;-44
2022/09/13 07:17:12;;;;;;;14.80;8.73;;;16.30;99.90;;;;;;5073950;28;20024;-45
2022/09/13 07:19:37;;;;;;;12.05;8.40;;;16.30;99.90;;;;;;5073343;28;20024;-47
2022/09/13 07:22:03;;;;;;;18.35;8.63;;;16.50;99.90;;;;;;5073253;28;20033;-46
2022/09/13 07:24:29;;;;;;;14.40;8.27;;;16.40;99.90;;;;;;5073794;28;20375;-44
2022/09/13 07:26:54;;;;;;;9.18;8.07;;;16.40;99.90;;;;;;5072871;28;20480;-47
2022/09/13 07:29:22;;;;;;;12.95;9.27;;;16.50;99.90;;;;;;5075340;28;20034;-44
2022/09/13 07:31:49;;;;;;;11.65;9.65;;;16.60;99.90;;;;;;5075565;28;20104;-44
2022/09/13 07:34:20;;;;;;;10.63;8.85;;;16.60;99.90;;;;;;5073301;28;20025;-46
2022/09/13 07:36:46;;;;;;;16.13;8.40;;;16.60;99.90;;;;;;5073033;28;20020;-48
2022/09/13 07:39:13;;;;;;;10.88;8.75;;;16.50;99.90;;;;;;5073371;28;20032;-44
2022/09/13 07:41:39;;;;;;;11.20;8.77;;;16.50;99.90;;;;;;5072728;28;20025;-46
2022/09/13 07:44:07;;;;;;;10.40;7.97;;;16.50;99.90;;;;;;5072653;28;20028;-43
2022/09/13 07:46:42;;;;;;;10.40;8.20;;;16.40;99.90;;;;;;5072808;28;20483;-41
2022/09/13 07:49:10;;;;;;;11.60;9.15;;;16.40;99.90;;;;;;5073232;28;20105;-42
2022/09/13 07:51:38;;;;;;;11.10;9.52;;;16.40;99.90;;;;;;5072611;28;20024;-48
2022/09/13 07:54:08;;;;;;;13.52;9.82;;;16.40;99.90;;;;;;5072467;28;20089;-40
2022/09/13 07:56:36;;;;;;;10.63;9.07;;;16.40;99.90;;;;;;5054583;28;20025;-39
2022/09/13 07:59:05;;;;;;;13.02;10.48;;;16.40;99.90;;;;;;5072187;28;20024;-46
2022/09/13 08:01:36;;;;;;;13.10;9.57;;;16.40;99.90;;;;;;5072576;28;20020;-48
2022/09/13 08:04:04;;;;;;;12.32;8.90;;;16.50;99.90;;;;;;5072190;28;20043;-41
2022/09/13 08:06:31;;;;;;;10.65;9.32;;;16.40;99.90;;;;;;5072420;28;20025;-41
2022/09/13 08:08:57;;;;;;;21.17;9.32;;;16.40;99.90;;;;;;5072116;28;20025;-45
2022/09/13 08:11:31;;;;;;;12.77;9.75;;;16.50;99.90;;;;;;5072153;28;20074;-48
2022/09/13 08:13:58;;;;;;;14.77;9.20;;;16.50;99.90;;;;;;5072445;28;20025;-45
2022/09/13 08:16:24;;;;;;;10.02;8.93;;;16.60;99.90;;;;;;5072075;28;20063;-40
2022/09/13 08:18:53;;;;;;;13.27;9.25;;;16.60;99.90;;;;;;5071933;28;20085;-44
2022/09/13 08:21:19;;;;;;;15.52;9.35;;;16.80;99.90;;;;;;5071938;28;20644;-45
2022/09/13 08:23:45;;;;;;;12.95;9.43;;;16.90;99.90;;;;;;5071375;28;20052;-44
2022/09/13 08:26:12;;;;;;;10.70;8.90;;;17.00;99.90;;;;;;5072048;28;20369;-44
2022/09/13 08:28:41;;;;;;;14.85;9.15;;;17.00;99.90;;;;;;5071957;28;20032;-39
2022/09/13 08:31:16;;;;;;;13.45;8.68;;;17.10;99.90;;;;;;5072359;28;20051;-45
2022/09/13 08:33:47;;;;;;;9.27;8.38;;;17.20;99.90;;;;;;5071775;28;20028;-48
2022/09/13 08:36:14;;;;;;;15.65;8.88;;;17.20;99.90;;;;;;5071666;28;20487;-45
2022/09/13 08:38:47;;;;;;;14.13;9.68;;;17.30;99.90;;;;;;5071873;28;20042;-45
2022/09/13 08:41:32;;;;;;;13.73;9.27;;;17.40;99.90;;;;;;5071890;28;20032;-41
2022/09/13 08:44:17;;;;;;;11.23;9.53;;;17.50;99.90;;;;;;5071441;28;20081;-40
2022/09/13 08:46:46;;;;;;;14.25;9.50;;;17.60;99.90;;;;;;5071867;28;20021;-47
2022/09/13 08:49:27;;;;;;;13.98;9.60;;;17.60;99.90;;;;;;5071606;28;20111;-47
2022/09/13 08:52:15;;;;;;;15.93;10.23;;;17.70;99.90;;;;;;5071397;28;20032;-48
2022/09/13 08:54:41;;;;;;;17.25;10.15;;;17.80;99.90;;;;;;5071760;28;20028;-50
2022/09/13 08:57:41;;;;;;;12.45;10.70;;;17.80;99.90;;;;;;5071545;28;20369;-41
2022/09/13 09:00:19;;;;;;;13.65;10.15;;;17.70;99.90;;;;;;5071599;28;20484;-45
2022/09/13 09:03:17;;;;;;;24.35;10.70;;;17.70;99.90;;;;;;5071121;28;20514;-41
2022/09/13 09:05:48;;;;;;;13.90;10.18;;;17.70;99.90;;;;;;5063113;28;20446;-44
2022/09/13 09:08:30;;;;;;;11.25;10.02;;;17.60;99.90;;;;;;5053282;28;20115;-47
2022/09/13 09:10:57;;;;;;;12.88;9.70;;;17.50;99.90;;;;;;5071432;28;20426;-46
2022/09/13 09:13:34;;;;;;;14.65;9.57;;;17.50;99.90;;;;;;5071303;28;20021;-46
2022/09/13 09:16:28;;;;;;;12.23;9.80;;;17.40;99.90;;;;;;5071535;28;20024;-44
2022/09/13 09:18:56;;;;;;;12.38;9.60;;;17.40;99.90;;;;;;5071480;28;20502;-47
2022/09/13 09:21:22;;;;;;;10.18;9.15;;;17.30;99.90;;;;;;5071153;28;20043;-47
2022/09/13 09:23:53;;;;;;;14.23;10.05;;;17.20;99.90;;;;;;5071153;28;20539;-40
2022/09/13 09:26:21;;;;;;;11.20;9.85;;;17.20;99.90;;;;;;5071254;28;20396;-47
2022/09/13 09:28:54;;;;;;;12.63;9.95;;;17.30;99.90;;;;;;5071144;28;20060;-46
2022/09/13 09:31:50;;;;;;;11.75;10.35;;;17.30;99.90;;;;;;5071371;28;20025;-46
2022/09/13 09:34:53;;;;;;;12.68;9.70;;;17.40;99.90;;;;;;5071137;28;20496;-48
2022/09/13 09:37:27;;;;;;;13.95;9.85;;;17.60;99.90;;;;;;5071250;28;20060;-44
2022/09/13 09:40:01;;;;;;;12.63;9.55;;;17.70;99.90;;;;;;5071765;28;20028;-44
2022/09/13 09:42:31;;;;;;;11.43;9.60;;;17.80;99.90;;;;;;5071027;28;20632;-45
2022/09/13 09:45:17;;;;;;;11.75;9.68;;;17.80;99.90;;;;;;5071235;28;20392;-49
2022/09/13 09:47:46;;;;;;;;;;;18.00;99.90;;;;;;5071399;28;20032;-48
2022/09/13 09:50:17;;;;;;;9.52;8.63;;;18.10;99.90;;;;;;5074569;28;19949;-43
2022/09/13 09:52:50;;;;;;;14.55;9.38;;;18.20;99.90;;;;;;5075540;28;20441;-42
2022/09/13 09:55:17;;;;;;;12.88;9.60;;;18.30;99.90;;;;;;5075640;28;20542;-43
2022/09/13 09:57:50;;;;;;;15.68;9.65;;;18.30;99.90;;;;;;5057259;28;20170;-43
2022/09/13 10:00:16;;;;;;;15.77;9.65;;;18.30;99.90;;;;;;5075450;28;20078;-44
2022/09/13 10:02:43;;;;;;;17.02;9.30;;;18.20;99.90;;;;;;5075242;28;20057;-44
2022/09/13 10:05:11;;;;;;;13.45;10.35;;;18.10;99.90;;;;;;5075179;28;20028;-45
2022/09/13 10:07:37;;;;;;;13.30;9.65;;;18.10;99.90;;;;;;5074802;28;20613;-48
2022/09/13 10:10:42;;;;;;;16.55;10.18;;;18.10;99.90;;;;;;5056549;28;20092;-45
2022/09/13 10:13:20;;;;;;;14.45;10.45;;;18.10;99.90;;;;;;5012291;28;20103;-45
2022/09/13 10:15:59;;;;;;;13.55;10.13;;;18.20;99.90;;;;;;5012639;28;20026;-41
2022/09/13 10:18:26;;;;;;;15.90;11.35;;;18.20;99.90;;;;;;5052003;28;20052;-44
2022/09/13 10:23:36;;;;;;;14.52;11.02;;;18.10;99.90;;;;;;5050395;28;20049;-42
2022/09/13 10:26:05;;;;;;;14.32;10.93;;;18.00;99.90;;;;;;5054461;28;20493;-39
2022/09/13 10:28:35;;;;;;;16.38;12.05;;;17.90;99.90;;;;;;5054222;28;20029;-43
2022/09/13 10:31:11;;;;;;;20.42;13.93;;;17.90;99.90;;;;;;5054041;28;20017;-43
2022/09/13 10:34:05;;;;;;;14.85;11.20;;;17.80;99.90;;;;;;5035507;28;20024;-44
2022/09/13 10:36:33;;;;;;;14.25;11.57;;;17.80;99.90;;;;;;5049779;28;20057;-45
2022/09/13 10:39:03;;;;;;;19.70;12.30;;;17.80;99.90;;;;;;5053928;28;20039;-43
2022/09/13 10:41:32;;;;;;;23.30;11.30;;;17.80;99.90;;;;;;5053554;28;20098;-44
2022/09/13 10:44:01;;;;;;;16.08;11.63;;;17.90;99.90;;;;;;5054148;28;20112;-48
2022/09/13 10:46:30;;;;;;;20.50;12.45;;;17.90;99.90;;;;;;5052913;28;20611;-45
2022/09/13 10:48:56;;;;;;;16.30;11.20;;;18.00;99.90;;;;;;5053118;28;20041;-45
2022/09/13 10:51:34;;;;;;;14.65;10.20;;;18.10;99.90;;;;;;5053794;28;20028;-45
2022/09/13 10:54:22;;;;;;;16.33;11.25;;;18.20;99.90;;;;;;5054137;28;20024;-44
2022/09/13 10:56:51;;;;;;;23.00;11.70;;;18.30;99.90;;;;;;5053665;28;20032;-45
2022/09/13 10:59:21;;;;;;;24.00;13.90;;;18.40;99.90;;;;;;5052812;28;20029;-46
2022/09/13 11:02:27;;;;;;;17.70;10.68;;;18.60;99.90;;;;;;5053280;28;20040;-47
2022/09/13 11:05:25;;;;;;;14.00;11.40;;;18.70;99.90;;;;;;5053539;28;20025;-46
2022/09/13 11:08:17;;;;;;;14.88;11.57;;;19.00;99.90;;;;;;5053416;28;20029;-48
2022/09/13 11:11:03;;;;;;;16.90;12.35;;;19.20;99.90;;;;;;5053484;28;20025;-45
2022/09/13 11:13:35;;;;;;;12.63;10.55;;;19.30;99.90;;;;;;5053011;28;20032;-50
2022/09/13 11:16:12;;;;;;;16.52;12.52;;;19.40;99.90;;;;;;5053720;28;20029;-48
2022/09/13 11:19:02;;;;;;;15.70;10.73;;;19.40;99.90;;;;;;5053146;28;20029;-45
2022/09/13 11:21:55;;;;;;;14.55;10.88;;;19.40;99.90;;;;;;5052947;28;20404;-48
2022/09/13 11:24:29;;;;;;;12.05;10.30;;;19.40;99.90;;;;;;5053022;28;20025;-49
2022/09/13 11:27:15;;;;;;;14.52;9.88;;;19.40;99.90;;;;;;5053695;28;20115;-47
2022/09/13 11:30:07;;;;;;;15.25;11.43;;;19.40;99.90;;;;;;5052703;28;20029;-48
2022/09/13 11:32:43;;;;;;;12.27;10.88;;;19.40;99.90;;;;;;5052740;28;20029;-44
2022/09/13 11:35:25;;;;;;;15.68;11.02;;;19.40;99.90;;;;;;5052717;28;20024;-47
2022/09/13 11:38:10;;;;;;;22.77;11.85;;;19.40;99.90;;;;;;5052937;28;20017;-49
2022/09/13 11:41:10;;;;;;;17.02;10.25;;;19.50;99.90;;;;;;5052730;28;20028;-47
2022/09/13 11:44:10;;;;;;;12.98;11.35;;;19.50;99.90;;;;;;5052314;28;20087;-50
2022/09/13 11:46:58;;;;;;;12.85;10.05;;;19.50;99.90;;;;;;5053085;28;20154;-46
2022/09/13 11:49:48;;;;;;;22.60;11.02;;;19.40;99.90;;;;;;5034543;28;20407;-47
2022/09/13 11:52:36;;;;;;;18.58;13.00;;;19.40;99.90;;;;;;5052224;28;20053;-50
2022/09/13 11:55:13;;;;;;;14.70;12.00;;;19.30;99.90;;;;;;5052285;28;20072;-47
2022/09/13 11:57:44;;;;;;;18.13;11.82;;;19.30;99.90;;;;;;5052665;28;20396;-48
2022/09/13 12:00:37;;;;;;;23.55;12.80;;;19.20;99.90;;;;;;5051900;28;20025;-50
2022/09/13 12:03:09;;;;;;;17.55;12.18;;;19.20;99.90;;;;;;5052077;28;20025;-46
2022/09/13 12:05:51;;;;;;;16.00;13.65;;;19.20;99.90;;;;;;5052239;28;20029;-47
2022/09/13 12:08:31;;;;;;;19.98;13.75;;;19.20;99.90;;;;;;5052306;28;20061;-45
2022/09/13 12:11:02;;;;;;;23.50;13.77;;;19.30;99.90;;;;;;5050192;28;20048;-48
2022/09/13 12:13:36;;;;;;;19.08;12.93;;;19.30;99.90;;;;;;5049930;28;20107;-44
2022/09/13 12:16:07;;;;;;;16.08;12.10;;;19.30;99.90;;;;;;5051570;28;20104;-46
2022/09/13 12:19:13;;;;;;;22.33;12.10;;;19.30;99.90;;;;;;5034022;28;20382;-47
2022/09/13 12:21:40;;;;;;;16.55;12.98;;;19.50;99.90;;;;;;5023450;28;20098;-45
2022/09/13 12:24:09;;;;;;;18.38;13.88;;;19.30;99.90;;;;;;5051602;28;20021;-44
2022/09/13 12:26:45;;;;;;;15.95;12.95;;;19.60;99.90;;;;;;5051836;28;20063;-46
2022/09/13 12:29:39;;;;;;;16.65;13.30;;;19.60;99.90;;;;;;5051929;28;20558;-46
2022/09/13 12:32:06;;;;;;;20.35;12.73;;;19.60;99.90;;;;;;5051962;28;20029;-50
2022/09/13 12:34:56;;;;;;;13.57;12.00;;;19.50;99.90;;;;;;5051945;28;20037;-46
2022/09/13 12:37:49;;;;;;;15.63;12.50;;;19.50;99.90;;;;;;5051659;28;20028;-49
2022/09/13 12:40:41;;;;;;;17.50;12.77;;;19.40;99.90;;;;;;5051554;28;20073;-48
2022/09/13 12:43:37;;;;;;;14.98;12.27;;;19.30;99.90;;;;;;5051174;28;20021;-50
2022/09/13 12:46:23;;;;;;;15.68;12.23;;;19.30;99.90;;;;;;5051843;28;20039;-50
2022/09/13 12:48:58;;;;;;;21.13;12.80;;;19.30;99.90;;;;;;5051133;28;20055;-49
2022/09/13 12:51:24;;;;;;;;;;;19.40;99.90;;;;;;5052022;28;20365;-49
2022/09/13 12:54:24;;;;;;;13.65;11.10;;;19.40;99.90;;;;;;5051233;28;19905;-48
2022/09/13 12:57:03;;;;;;;15.25;10.65;;;19.50;99.90;;;;;;5039531;28;20021;-50
2022/09/13 12:59:56;;;;;;;11.98;9.48;;;19.70;99.90;;;;;;5040747;28;20033;-56
2022/09/13 13:02:43;;;;;;;15.38;11.98;;;19.80;99.90;;;;;;5041791;28;20037;-56
2022/09/13 13:05:31;;;;;;;17.60;11.95;;;20.00;99.90;;;;;;5042229;28;20068;-49
2022/09/13 13:08:00;;;;;;;18.05;12.25;;;;;;;;;;5040777;28;20223;-49
2022/09/13 13:10:33;;;;;;;22.05;13.27;;;20.10;99.90;;;;;;5042005;28;20035;-54